createdAt,value
2022-10-23T00:00:33.170Z,95718.2
2022-10-23T00:01:35.844Z,95714.4
2022-10-23T00:02:38.567Z,95716
2022-10-23T00:03:41.229Z,95717.7
2022-10-23T00:04:43.742Z,95713.5
2022-10-23T00:05:45.360Z,95720.8
2022-10-23T00:06:47.869Z,95717.7
2022-10-23T00:07:50.343Z,95717.4
2022-10-23T00:08:52.846Z,95715.1
2022-10-23T00:09:55.032Z,95712.7
2022-10-23T00:10:56.954Z,95711.7
2022-10-23T00:11:59.418Z,95711.7
2022-10-23T00:13:01.903Z,95712.5
2022-10-23T00:14:04.099Z,95709.8
2022-10-23T00:15:06.305Z,95711.8
2022-10-23T00:16:08.807Z,95707.3
2022-10-23T00:17:11.695Z,95706.9
2022-10-23T00:18:13.871Z,95709.4
2022-10-23T00:19:16.067Z,95711.3
2022-10-23T00:20:18.579Z,95711.7
2022-10-23T00:21:20.772Z,95713.4
2022-10-23T00:22:23.245Z,95716
2022-10-23T00:23:25.714Z,95714.8
2022-10-23T00:24:27.933Z,95712.9
2022-10-23T00:25:30.405Z,95711.3
2022-10-23T00:26:32.602Z,95709.9
2022-10-23T00:27:35.075Z,95709.2
2022-10-23T00:28:37.272Z,95707.5
2022-10-23T00:29:39.772Z,95708.6
2022-10-23T00:30:41.971Z,95709.6
2022-10-23T00:31:44.187Z,95707.5
2022-10-23T00:32:46.672Z,95709
2022-10-23T00:33:48.867Z,95709.6
2022-10-23T00:34:51.359Z,95709.3
2022-10-23T00:35:53.861Z,95713
2022-10-23T00:36:56.042Z,95706.1
2022-10-23T00:37:58.509Z,95708.1
2022-10-23T00:39:00.991Z,95701
2022-10-23T00:40:03.484Z,95703.9
2022-10-23T00:41:06.006Z,95702.4
2022-10-23T00:42:08.168Z,95700.2
2022-10-23T00:43:10.652Z,95698
2022-10-23T00:44:13.128Z,95700.4
2022-10-23T00:45:15.598Z,95703.1
2022-10-23T00:46:17.767Z,95700.3
2022-10-23T00:47:19.998Z,95707.7
2022-10-23T00:48:22.497Z,95704.1
2022-10-23T00:49:24.436Z,95705.4
2022-10-23T00:50:26.930Z,95708.5
2022-10-23T00:51:29.434Z,95709.6
2022-10-23T00:52:31.911Z,95711.8
2022-10-23T00:53:34.388Z,95712.4
2022-10-23T00:54:36.556Z,95711.1
2022-10-23T00:55:38.803Z,95707.5
2022-10-23T00:56:40.992Z,95706.9
2022-10-23T00:57:43.190Z,95708.2
2022-10-23T00:58:45.661Z,95705
2022-10-23T00:59:48.132Z,95701.7
2022-10-23T01:00:50.044Z,95706.7
2022-10-23T01:01:53.007Z,95706.7
2022-10-23T01:02:55.675Z,95705.5
2022-10-23T01:03:58.153Z,95707.9
2022-10-23T01:05:00.079Z,95707.8
2022-10-23T01:06:02.567Z,95709.2
2022-10-23T01:07:05.108Z,95707.9
2022-10-23T01:08:07.290Z,95710.5
2022-10-23T01:09:09.757Z,95707.9
2022-10-23T01:10:12.231Z,95704.4
2022-10-23T01:11:14.449Z,95699.7
2022-10-23T01:12:16.389Z,95695.2
2022-10-23T01:13:18.854Z,95695.8
2022-10-23T01:14:20.776Z,95694.8
2022-10-23T01:15:23.253Z,95694.3
2022-10-23T01:16:25.724Z,95700.1
2022-10-23T01:17:28.188Z,95700.3
2022-10-23T01:18:30.695Z,95689.2
2022-10-23T01:19:32.896Z,95688.9
2022-10-23T01:20:35.109Z,95692.3
2022-10-23T01:21:37.320Z,95684.6
2022-10-23T01:22:40.419Z,95679.8
2022-10-23T01:23:43.543Z,95680.4
2022-10-23T01:24:46.007Z,95684.5
2022-10-23T01:25:47.935Z,95673.7
2022-10-23T01:26:50.430Z,95679.6
2022-10-23T01:27:52.901Z,95676.9
2022-10-23T01:28:55.095Z,95681.1
2022-10-23T01:29:57.578Z,95676.4
2022-10-23T01:30:59.764Z,95677.7
2022-10-23T01:32:01.942Z,95682.3
2022-10-23T01:33:04.131Z,95693.1
2022-10-23T01:34:06.631Z,95693.6
2022-10-23T01:35:09.111Z,95693.8
2022-10-23T01:36:11.593Z,95694.3
2022-10-23T01:37:13.511Z,95690.1
2022-10-23T01:38:16.031Z,95688.6
2022-10-23T01:39:18.531Z,95691.2
2022-10-23T01:40:20.999Z,95686.6
2022-10-23T01:41:23.475Z,95683.5
2022-10-23T01:42:25.964Z,95683.5
2022-10-23T01:43:28.447Z,95678.6
2022-10-23T01:44:30.646Z,95679.6
2022-10-23T01:45:32.841Z,95677.7
2022-10-23T01:46:35.049Z,95678.7
2022-10-23T01:47:36.946Z,95676.5
2022-10-23T01:48:39.253Z,95674.4
2022-10-23T01:49:41.497Z,95678.5
2022-10-23T01:50:43.983Z,95673.8
2022-10-23T01:51:45.908Z,95675.3
2022-10-23T01:52:48.117Z,95665.1
2022-10-23T01:53:50.619Z,95661.3
2022-10-23T01:54:53.097Z,95659.9
2022-10-23T01:55:55.028Z,95659.6
2022-10-23T01:56:57.219Z,95659.5
2022-10-23T01:57:59.707Z,95658.6
2022-10-23T01:59:01.902Z,95657.8
2022-10-23T02:00:04.365Z,95656.4
2022-10-23T02:01:07.135Z,95658.6
2022-10-23T02:02:09.921Z,95660.7
2022-10-23T02:03:12.652Z,95658.6
2022-10-23T02:04:14.823Z,95658.9
2022-10-23T02:05:16.482Z,95655.9
2022-10-23T02:06:18.964Z,95652.9
2022-10-23T02:07:21.163Z,95652.7
2022-10-23T02:08:23.055Z,95651.1
2022-10-23T02:09:25.569Z,95649.1
2022-10-23T02:10:28.043Z,95644.4
2022-10-23T02:11:30.217Z,95648.5
2022-10-23T02:12:32.430Z,95644.7
2022-10-23T02:13:35.058Z,95642.1
2022-10-23T02:14:37.536Z,95640.8
2022-10-23T02:15:40.010Z,95640.2
2022-10-23T02:16:42.206Z,95638.3
2022-10-23T02:17:45.816Z,95640
2022-10-23T02:18:47.735Z,95637
2022-10-23T02:19:50.202Z,95634.4
2022-10-23T02:20:52.705Z,95631.7
2022-10-23T02:21:55.196Z,95630.7
2022-10-23T02:22:57.673Z,95635.7
2022-10-23T02:23:59.594Z,95629.8
2022-10-23T02:25:02.107Z,95628.2
2022-10-23T02:26:04.310Z,95632.2
2022-10-23T02:27:06.787Z,95632.5
2022-10-23T02:28:08.999Z,95633.8
2022-10-23T02:29:11.243Z,95632.3
2022-10-23T02:30:13.427Z,95628.6
2022-10-23T02:31:15.910Z,95628.1
2022-10-23T02:32:18.378Z,95624.9
2022-10-23T02:33:20.576Z,95627.6
2022-10-23T02:34:23.048Z,95625.5
2022-10-23T02:35:24.678Z,95625.9
2022-10-23T02:36:27.165Z,95619.3
2022-10-23T02:37:29.652Z,95617.7
2022-10-23T02:38:32.126Z,95615.5
2022-10-23T02:39:34.608Z,95615
2022-10-23T02:40:36.817Z,95615.6
2022-10-23T02:41:38.440Z,95605.9
2022-10-23T02:42:40.906Z,95607.5
2022-10-23T02:43:43.108Z,95608.9
2022-10-23T02:44:45.594Z,95614.3
2022-10-23T02:45:47.801Z,95606.7
2022-10-23T02:46:50.261Z,95603.2
2022-10-23T02:47:52.207Z,95602.4
2022-10-23T02:48:54.671Z,95603.2
2022-10-23T02:49:57.143Z,95602.1
2022-10-23T02:50:59.608Z,95605
2022-10-23T02:52:01.555Z,95602.6
2022-10-23T02:53:04.030Z,95603.5
2022-10-23T02:54:05.956Z,95601.1
2022-10-23T02:55:08.142Z,95601.5
2022-10-23T02:56:10.394Z,95606.8
2022-10-23T02:57:12.864Z,95601.2
2022-10-23T02:58:14.780Z,95598.6
2022-10-23T02:59:16.979Z,95603.7
2022-10-23T03:00:19.468Z,95602.7
2022-10-23T03:01:22.437Z,95600
2022-10-23T03:02:27.082Z,95602.4
2022-10-23T03:03:29.672Z,95601.8
2022-10-23T03:04:32.075Z,95600.6
2022-10-23T03:05:34.663Z,95603.4
2022-10-23T03:06:37.128Z,95601.2
2022-10-23T03:07:39.901Z,95600.6
2022-10-23T03:08:42.935Z,95601.8
2022-10-23T03:09:45.415Z,95602.3
2022-10-23T03:11:51.272Z,95604.5
2022-10-23T03:12:53.448Z,95606.8
2022-10-23T03:13:55.658Z,95603.9
2022-10-23T03:14:57.844Z,95607.9
2022-10-23T03:16:00.071Z,95605.3
2022-10-23T03:17:02.536Z,95606
2022-10-23T03:18:04.734Z,95603.6
2022-10-23T03:19:07.113Z,95601.7
2022-10-23T03:20:09.743Z,95601
2022-10-23T03:21:12.296Z,95597.5
2022-10-23T03:22:14.762Z,95594.6
2022-10-23T03:23:17.254Z,95588.1
2022-10-23T03:24:19.736Z,95585.9
2022-10-23T03:25:22.196Z,95584.8
2022-10-23T03:26:24.678Z,95578.9
2022-10-23T03:28:30.532Z,95575.4
2022-10-23T03:29:32.712Z,95574.9
2022-10-23T03:30:34.913Z,95576.2
2022-10-23T03:31:37.434Z,95579
2022-10-23T03:32:39.794Z,95580.5
2022-10-23T03:33:42.037Z,95583.9
2022-10-23T03:34:44.237Z,95584.5
2022-10-23T03:36:50.084Z,95590.8
2022-10-23T03:37:52.550Z,95589.9
2022-10-23T03:38:55.045Z,95591.3
2022-10-23T03:39:57.228Z,95591.2
2022-10-23T03:40:59.428Z,95591.2
2022-10-23T03:42:01.616Z,95586.3
2022-10-23T03:43:03.837Z,95583.4
2022-10-23T03:44:06.157Z,95582.4
2022-10-23T03:45:08.664Z,95583.7
2022-10-23T03:46:11.132Z,95584.9
2022-10-23T03:47:13.372Z,95586.2
2022-10-23T03:48:15.839Z,95587.4
2022-10-23T03:49:17.757Z,95587.1
2022-10-23T03:50:19.948Z,95585.5
2022-10-23T03:51:22.425Z,95587
2022-10-23T03:52:25.656Z,95584.2
2022-10-23T03:53:28.124Z,95584.9
2022-10-23T03:54:30.623Z,95586.7
2022-10-23T03:55:33.104Z,95588.4
2022-10-23T03:56:35.587Z,95584.9
2022-10-23T03:57:38.066Z,95583.9
2022-10-23T03:58:40.582Z,95587.6
2022-10-23T03:59:42.507Z,95584.7
2022-10-23T04:00:44.807Z,95585.9
2022-10-23T04:01:47.962Z,95584.9
2022-10-23T04:02:50.870Z,95583.4
2022-10-23T04:03:53.054Z,95582.2
2022-10-23T04:04:55.527Z,95583
2022-10-23T04:05:57.440Z,95583.5
2022-10-23T04:07:00.345Z,95583.4
2022-10-23T04:08:02.510Z,95582.5
2022-10-23T04:09:05.208Z,95583.6
2022-10-23T04:10:07.818Z,95587.9
2022-10-23T04:11:10.052Z,95583.2
2022-10-23T04:12:12.255Z,95588.4
2022-10-23T04:13:14.458Z,95590.4
2022-10-23T04:14:16.983Z,95589.8
2022-10-23T04:15:19.454Z,95588.5
2022-10-23T04:16:21.649Z,95585
2022-10-23T04:17:24.186Z,95584.8
2022-10-23T04:18:26.496Z,95582.6
2022-10-23T04:19:28.701Z,95582.8
2022-10-23T04:20:31.161Z,95584.8
2022-10-23T04:21:33.639Z,95582
2022-10-23T04:22:36.115Z,95581.7
2022-10-23T04:23:38.317Z,95582.5
2022-10-23T04:24:40.789Z,95579.4
2022-10-23T04:25:43.471Z,95577.9
2022-10-23T04:26:46.027Z,95578
2022-10-23T04:27:48.239Z,95578.2
2022-10-23T04:28:50.709Z,95582
2022-10-23T04:30:58.204Z,95582
2022-10-23T04:32:00.153Z,95585
2022-10-23T04:33:02.625Z,95589.9
2022-10-23T04:35:08.686Z,95584.1
2022-10-23T04:36:11.165Z,95587.6
2022-10-23T04:37:13.624Z,95585
2022-10-23T04:38:16.133Z,95588.1
2022-10-23T04:39:18.595Z,95586.2
2022-10-23T04:40:20.239Z,95582.3
2022-10-23T04:41:22.453Z,95585.5
2022-10-23T04:42:25.162Z,95582.9
2022-10-23T04:43:27.380Z,95574.5
2022-10-23T04:44:29.578Z,95583.8
2022-10-23T04:45:32.043Z,95579.3
2022-10-23T04:46:34.278Z,95577.6
2022-10-23T04:47:36.740Z,95579.6
2022-10-23T04:48:39.217Z,95572.7
2022-10-23T04:49:41.428Z,95567.5
2022-10-23T04:50:43.743Z,95568.2
2022-10-23T04:51:50.679Z,95572.3
2022-10-23T04:52:52.886Z,95570.4
2022-10-23T04:53:55.362Z,95576.4
2022-10-23T04:54:57.265Z,95573.1
2022-10-23T04:55:59.449Z,95570.6
2022-10-23T04:57:01.938Z,95568.7
2022-10-23T04:58:04.420Z,95567
2022-10-23T04:59:07.019Z,95568.3
2022-10-23T05:00:09.291Z,95560.8
2022-10-23T05:01:12.174Z,95560.3
2022-10-23T05:02:14.644Z,95557.2
2022-10-23T05:03:17.117Z,95562.3
2022-10-23T05:04:19.310Z,95561.5
2022-10-23T05:05:21.825Z,95559.8
2022-10-23T05:06:24.034Z,95564.1
2022-10-23T05:07:25.965Z,95561.5
2022-10-23T05:08:28.153Z,95561.2
2022-10-23T05:09:30.081Z,95560.5
2022-10-23T05:10:32.249Z,95563.5
2022-10-23T05:11:34.728Z,95560.2
2022-10-23T05:12:37.234Z,95561.2
2022-10-23T05:13:39.783Z,95560.1
2022-10-23T05:14:41.975Z,95559
2022-10-23T05:15:44.515Z,95555
2022-10-23T05:16:46.730Z,95553.5
2022-10-23T05:17:49.242Z,95554.1
2022-10-23T05:18:51.434Z,95550
2022-10-23T05:19:53.635Z,95551.2
2022-10-23T05:20:56.117Z,95554.1
2022-10-23T05:21:58.317Z,95552
2022-10-23T05:23:00.794Z,95547.7
2022-10-23T05:24:03.310Z,95546.3
2022-10-23T05:25:05.940Z,95550.7
2022-10-23T05:26:08.144Z,95548.6
2022-10-23T05:27:10.605Z,95545.7
2022-10-23T05:28:13.102Z,95547.4
2022-10-23T05:29:15.596Z,95550.6
2022-10-23T05:30:17.796Z,95547.8
2022-10-23T05:31:20.003Z,95550.9
2022-10-23T05:32:22.543Z,95548.5
2022-10-23T05:33:25.043Z,95550.1
2022-10-23T05:34:27.518Z,95551
2022-10-23T05:35:29.983Z,95552.5
2022-10-23T05:36:32.478Z,95553.7
2022-10-23T05:37:34.945Z,95546.3
2022-10-23T05:38:37.145Z,95550.2
2022-10-23T05:39:39.068Z,95551
2022-10-23T05:40:41.385Z,95543.3
2022-10-23T05:41:43.868Z,95549.2
2022-10-23T05:42:48.158Z,95544.8
2022-10-23T05:43:51.211Z,95543
2022-10-23T05:44:53.229Z,95545.6
2022-10-23T05:45:55.429Z,95541
2022-10-23T05:46:57.902Z,95543.3
2022-10-23T05:49:05.132Z,95545.8
2022-10-23T05:50:07.052Z,95550.1
2022-10-23T05:51:09.239Z,95547.8
2022-10-23T05:52:11.735Z,95552.8
2022-10-23T05:53:13.926Z,95549.9
2022-10-23T05:54:16.114Z,95545
2022-10-23T05:55:18.304Z,95549
2022-10-23T05:56:20.774Z,95546.5
2022-10-23T05:57:23.257Z,95548.4
2022-10-23T05:58:25.736Z,95553.1
2022-10-23T05:59:27.980Z,95553
2022-10-23T06:00:30.758Z,95556.2
2022-10-23T06:01:33.547Z,95552.5
2022-10-23T06:02:36.355Z,95557.8
2022-10-23T06:03:38.674Z,95557.7
2022-10-23T06:04:41.193Z,95559.3
2022-10-23T06:05:43.425Z,95557.1
2022-10-23T06:06:45.914Z,95564.9
2022-10-23T06:07:48.042Z,95565.5
2022-10-23T06:08:50.222Z,95560.3
2022-10-23T06:09:52.119Z,95564.2
2022-10-23T06:10:54.038Z,95565.2
2022-10-23T06:11:56.225Z,95567.2
2022-10-23T06:12:58.700Z,95563.3
2022-10-23T06:14:01.022Z,95560.5
2022-10-23T06:15:03.780Z,95564.1
2022-10-23T06:17:11.251Z,95557.9
2022-10-23T06:18:13.143Z,95559.8
2022-10-23T06:19:15.613Z,95554
2022-10-23T06:20:17.830Z,95559.2
2022-10-23T06:21:20.307Z,95558.3
2022-10-23T06:22:22.790Z,95553.9
2022-10-23T06:23:24.462Z,95555.8
2022-10-23T06:24:26.951Z,95557
2022-10-23T06:25:29.129Z,95556.4
2022-10-23T06:26:31.338Z,95553.3
2022-10-23T06:27:33.551Z,95550.5
2022-10-23T06:28:35.760Z,95553.5
2022-10-23T06:29:38.236Z,95550.8
2022-10-23T06:30:40.511Z,95555.1
2022-10-23T06:31:42.416Z,95552.9
2022-10-23T06:32:46.508Z,95551.3
2022-10-23T06:33:48.993Z,95552.9
2022-10-23T06:34:50.917Z,95553.1
2022-10-23T06:35:53.153Z,95558.7
2022-10-23T06:36:55.639Z,95553.5
2022-10-23T06:37:58.106Z,95550.7
2022-10-23T06:39:01.645Z,95555.1
2022-10-23T06:40:04.108Z,95552.3
2022-10-23T06:41:06.584Z,95555.4
2022-10-23T06:42:08.787Z,95547.6
2022-10-23T06:43:11.635Z,95552.4
2022-10-23T06:44:13.253Z,95547.9
2022-10-23T06:45:15.178Z,95545
2022-10-23T06:46:17.666Z,95545.8
2022-10-23T06:47:20.179Z,95545.1
2022-10-23T06:48:22.643Z,95546.6
2022-10-23T06:49:25.129Z,95554.2
2022-10-23T06:50:27.369Z,95550.9
2022-10-23T06:51:29.985Z,95557.4
2022-10-23T06:53:37.174Z,95559.7
2022-10-23T06:54:39.392Z,95564
2022-10-23T06:55:41.769Z,95565.4
2022-10-23T06:56:43.686Z,95568.6
2022-10-23T06:57:47.756Z,95564.9
2022-10-23T06:58:50.237Z,95573.9
2022-10-23T06:59:52.727Z,95573.1
2022-10-23T07:00:55.584Z,95576.7
2022-10-23T07:01:58.207Z,95580.1
2022-10-23T07:03:00.428Z,95579.4
2022-10-23T07:04:02.628Z,95572
2022-10-23T07:05:07.672Z,95574.2
2022-10-23T07:06:12.643Z,95568.8
2022-10-23T07:07:15.164Z,95569.3
2022-10-23T07:08:17.353Z,95568.8
2022-10-23T07:09:19.558Z,95567.1
2022-10-23T07:10:22.043Z,95563.5
2022-10-23T07:11:24.530Z,95563.3
2022-10-23T07:12:26.720Z,95562.5
2022-10-23T07:13:28.929Z,95561.8
2022-10-23T07:14:31.130Z,95560
2022-10-23T07:15:33.317Z,95558.4
2022-10-23T07:16:35.507Z,95556.9
2022-10-23T07:17:37.750Z,95551.8
2022-10-23T07:18:39.942Z,95555.8
2022-10-23T07:19:42.424Z,95547.4
2022-10-23T07:20:44.331Z,95550.7
2022-10-23T07:21:46.515Z,95548.2
2022-10-23T07:22:49.029Z,95546.8
2022-10-23T07:23:51.511Z,95548.6
2022-10-23T07:24:53.996Z,95549.9
2022-10-23T07:25:56.505Z,95547.8
2022-10-23T07:26:58.709Z,95548.7
2022-10-23T07:28:00.913Z,95550.1
2022-10-23T07:29:03.402Z,95552.3
2022-10-23T07:30:05.871Z,95554.6
2022-10-23T07:31:08.061Z,95556.1
2022-10-23T07:32:10.692Z,95555.8
2022-10-23T07:33:12.912Z,95558.2
2022-10-23T07:34:15.395Z,95558.8
2022-10-23T07:35:17.343Z,95557.8
2022-10-23T07:36:19.837Z,95562.6
2022-10-23T07:37:22.313Z,95563
2022-10-23T07:38:24.832Z,95563.9
2022-10-23T07:39:27.024Z,95567.2
2022-10-23T07:40:29.245Z,95563
2022-10-23T07:41:31.462Z,95565.2
2022-10-23T07:42:33.942Z,95567
2022-10-23T07:43:36.114Z,95566.7
2022-10-23T07:44:38.594Z,95564.9
2022-10-23T07:45:40.485Z,95563.7
2022-10-23T07:46:42.957Z,95563.5
2022-10-23T07:47:46.708Z,95564.9
2022-10-23T07:48:49.210Z,95564.5
2022-10-23T07:49:51.179Z,95559.8
2022-10-23T07:50:53.396Z,95562.6
2022-10-23T07:51:56.122Z,95561.1
2022-10-23T07:52:58.373Z,95561.1
2022-10-23T07:54:00.877Z,95561
2022-10-23T07:55:03.085Z,95559.2
2022-10-23T07:56:05.558Z,95562.4
2022-10-23T07:57:08.060Z,95559
2022-10-23T07:58:10.529Z,95558.2
2022-10-23T07:59:12.723Z,95557
2022-10-23T08:00:15.205Z,95557
2022-10-23T08:01:17.746Z,95552.8
2022-10-23T08:02:20.311Z,95555.6
2022-10-23T08:03:22.932Z,95553.8
2022-10-23T08:04:25.169Z,95546.9
2022-10-23T08:05:27.391Z,95547.2
2022-10-23T08:06:29.615Z,95544.4
2022-10-23T08:07:32.089Z,95546.1
2022-10-23T08:08:34.547Z,95545.1
2022-10-23T08:09:36.601Z,95548.8
2022-10-23T08:10:39.073Z,95546.4
2022-10-23T08:11:41.542Z,95547.3
2022-10-23T08:12:45.530Z,95545.4
2022-10-23T08:13:47.887Z,95549
2022-10-23T08:14:50.105Z,95547.2
2022-10-23T08:15:52.574Z,95544.8
2022-10-23T08:16:55.022Z,95543.1
2022-10-23T08:17:57.589Z,95544.1
2022-10-23T08:19:00.079Z,95543.7
2022-10-23T08:20:02.571Z,95544.8
2022-10-23T08:21:05.056Z,95544
2022-10-23T08:22:06.951Z,95541.7
2022-10-23T08:23:09.155Z,95544.5
2022-10-23T08:24:11.352Z,95544.5
2022-10-23T08:25:14.198Z,95547.1
2022-10-23T08:26:16.792Z,95545.4
2022-10-23T08:27:18.734Z,95547.7
2022-10-23T08:28:21.209Z,95546.2
2022-10-23T08:29:23.701Z,95543.9
2022-10-23T08:30:26.164Z,95545.4
2022-10-23T08:31:28.654Z,95544.3
2022-10-23T08:32:30.840Z,95542.8
2022-10-23T08:33:32.765Z,95548.4
2022-10-23T08:34:34.680Z,95544.8
2022-10-23T08:35:37.205Z,95543
2022-10-23T08:36:39.417Z,95541.5
2022-10-23T08:37:43.080Z,95544.8
2022-10-23T08:38:46.129Z,95545.1
2022-10-23T08:40:53.640Z,95543.8
2022-10-23T08:41:55.557Z,95543.3
2022-10-23T08:42:58.033Z,95540.5
2022-10-23T08:44:00.558Z,95540.2
2022-10-23T08:45:03.024Z,95536.9
2022-10-23T08:47:10.490Z,95545.9
2022-10-23T08:48:12.970Z,95542.3
2022-10-23T08:49:15.445Z,95536.6
2022-10-23T08:50:17.864Z,95536.2
2022-10-23T08:51:20.196Z,95534.6
2022-10-23T08:52:22.685Z,95532.8
2022-10-23T08:53:25.153Z,95530
2022-10-23T08:54:27.630Z,95526.2
2022-10-23T08:55:30.121Z,95525
2022-10-23T08:56:32.629Z,95521.6
2022-10-23T08:57:36.855Z,95520.6
2022-10-23T08:58:41.606Z,95516.1
2022-10-23T08:59:44.177Z,95516.5
2022-10-23T09:00:46.234Z,95516.3
2022-10-23T09:01:49.398Z,95516.6
2022-10-23T09:02:51.589Z,95510.8
2022-10-23T09:03:54.062Z,95515.1
2022-10-23T09:04:56.264Z,95514.9
2022-10-23T09:05:58.741Z,95520.4
2022-10-23T09:07:01.529Z,95514.4
2022-10-23T09:08:04.120Z,95518.4
2022-10-23T09:09:06.023Z,95518.5
2022-10-23T09:10:08.237Z,95523.9
2022-10-23T09:11:10.447Z,95520
2022-10-23T09:12:12.978Z,95517.3
2022-10-23T09:13:15.461Z,95515.3
2022-10-23T09:14:17.665Z,95514.4
2022-10-23T09:15:20.152Z,95509.4
2022-10-23T09:16:22.644Z,95505.4
2022-10-23T09:17:24.855Z,95507.5
2022-10-23T09:18:26.774Z,95505
2022-10-23T09:19:29.248Z,95502.2
2022-10-23T09:20:31.722Z,95497.8
2022-10-23T09:21:33.907Z,95499.9
2022-10-23T09:22:36.129Z,95495.7
2022-10-23T09:23:38.617Z,95501.7
2022-10-23T09:24:41.425Z,95502.6
2022-10-23T09:25:43.891Z,95500.4
2022-10-23T09:26:46.086Z,95501.8
2022-10-23T09:28:53.303Z,95507.6
2022-10-23T09:29:55.783Z,95507.1
2022-10-23T09:30:58.276Z,95510.9
2022-10-23T09:32:00.246Z,95511.9
2022-10-23T09:33:02.752Z,95510.6
2022-10-23T09:35:11.845Z,95506
2022-10-23T09:36:14.344Z,95506.9
2022-10-23T09:37:16.819Z,95503.3
2022-10-23T09:38:19.332Z,95508.6
2022-10-23T09:39:21.820Z,95505.7
2022-10-23T09:40:23.455Z,95504.8
2022-10-23T09:41:25.378Z,95502.4
2022-10-23T09:42:27.573Z,95504.2
2022-10-23T09:43:29.492Z,95502.4
2022-10-23T09:44:31.735Z,95498.7
2022-10-23T09:45:34.214Z,95499.5
2022-10-23T09:46:36.846Z,95492.9
2022-10-23T09:47:39.397Z,95494.5
2022-10-23T09:48:41.809Z,95493.2
2022-10-23T09:49:44.012Z,95488
2022-10-23T09:50:46.269Z,95486
2022-10-23T09:51:48.781Z,95484.2
2022-10-23T09:52:50.150Z,95480.2
2022-10-23T09:53:52.639Z,95480.3
2022-10-23T09:54:54.833Z,95478.6
2022-10-23T09:55:56.733Z,95481
2022-10-23T09:56:58.923Z,95479.7
2022-10-23T09:58:00.584Z,95475.8
2022-10-23T09:59:03.069Z,95477.2
2022-10-23T10:00:05.616Z,95477.7
2022-10-23T10:01:08.369Z,95478.7
2022-10-23T10:02:11.661Z,95480.6
2022-10-23T10:03:14.434Z,95477.8
2022-10-23T10:04:16.890Z,95474.3
2022-10-23T10:05:18.798Z,95472
2022-10-23T10:06:21.271Z,95474.8
2022-10-23T10:07:23.204Z,95478.3
2022-10-23T10:08:25.392Z,95476.6
2022-10-23T10:09:27.908Z,95474.8
2022-10-23T10:10:30.397Z,95478.2
2022-10-23T10:11:32.884Z,95472.2
2022-10-23T10:12:35.092Z,95476.6
2022-10-23T10:13:37.571Z,95474.2
2022-10-23T10:14:39.468Z,95473.8
2022-10-23T10:15:41.985Z,95473.4
2022-10-23T10:16:44.261Z,95473.5
2022-10-23T10:17:47.377Z,95473.2
2022-10-23T10:18:49.846Z,95476.8
2022-10-23T10:19:52.053Z,95477.4
2022-10-23T10:20:53.971Z,95475.6
2022-10-23T10:21:56.470Z,95476.9
2022-10-23T10:22:58.790Z,95479.5
2022-10-23T10:24:00.723Z,95473.3
2022-10-23T10:25:02.105Z,95473.8
2022-10-23T10:26:04.033Z,95471.1
2022-10-23T10:27:06.500Z,95473.3
2022-10-23T10:28:08.695Z,95470.5
2022-10-23T10:29:10.622Z,95469.8
2022-10-23T10:30:12.833Z,95471.3
2022-10-23T10:31:15.340Z,95467.9
2022-10-23T10:32:17.812Z,95466.4
2022-10-23T10:33:20.033Z,95465.4
2022-10-23T10:34:21.949Z,95462.7
2022-10-23T10:35:24.426Z,95457.7
2022-10-23T10:36:26.959Z,95457.5
2022-10-23T10:37:29.438Z,95456.1
2022-10-23T10:38:31.628Z,95456.5
2022-10-23T10:39:33.575Z,95451
2022-10-23T10:40:35.788Z,95451.3
2022-10-23T10:41:37.972Z,95447.6
2022-10-23T10:42:40.432Z,95448.3
2022-10-23T10:43:42.357Z,95444.4
2022-10-23T10:44:44.831Z,95445.4
2022-10-23T10:45:47.058Z,95438.6
2022-10-23T10:46:49.568Z,95435.2
2022-10-23T10:47:51.499Z,95429
2022-10-23T10:48:54.004Z,95430.3
2022-10-23T10:49:56.470Z,95425.2
2022-10-23T10:50:58.667Z,95426.4
2022-10-23T10:52:00.850Z,95424.3
2022-10-23T10:53:03.337Z,95422.5
2022-10-23T10:54:05.595Z,95419.5
2022-10-23T10:55:07.765Z,95418.7
2022-10-23T10:56:11.354Z,95418.6
2022-10-23T10:57:13.595Z,95416.7
2022-10-23T10:58:16.082Z,95415.2
2022-10-23T10:59:17.700Z,95413.5
2022-10-23T11:00:20.199Z,95412.1
2022-10-23T11:01:22.959Z,95409.6
2022-10-23T11:02:26.007Z,95407
2022-10-23T11:03:28.476Z,95411.1
2022-10-23T11:04:30.764Z,95407.1
2022-10-23T11:05:33.238Z,95406.8
2022-10-23T11:06:35.723Z,95412
2022-10-23T11:07:38.206Z,95406.5
2022-10-23T11:09:44.824Z,95406
2022-10-23T11:10:47.306Z,95405.8
2022-10-23T11:11:49.521Z,95404.8
2022-10-23T11:12:52.171Z,95402.7
2022-10-23T11:13:54.362Z,95402.8
2022-10-23T11:14:56.836Z,95401.8
2022-10-23T11:15:59.055Z,95399.7
2022-10-23T11:17:01.274Z,95396.2
2022-10-23T11:18:03.790Z,95399.1
2022-10-23T11:20:10.994Z,95395.1
2022-10-23T11:21:13.515Z,95396.1
2022-10-23T11:22:15.980Z,95392.6
2022-10-23T11:23:18.449Z,95391.7
2022-10-23T11:24:20.632Z,95389.5
2022-10-23T11:25:22.837Z,95393.7
2022-10-23T11:26:24.735Z,95392.5
2022-10-23T11:27:27.261Z,95390.8
2022-10-23T11:28:29.472Z,95389.7
2022-10-23T11:29:31.942Z,95393.2
2022-10-23T11:30:33.843Z,95391.1
2022-10-23T11:31:36.062Z,95392.5
2022-10-23T11:32:38.550Z,95399
2022-10-23T11:34:46.103Z,95389.5
2022-10-23T11:35:48.582Z,95388.1
2022-10-23T11:36:50.519Z,95385.9
2022-10-23T11:37:52.158Z,95385.3
2022-10-23T11:38:54.625Z,95383
2022-10-23T11:39:56.825Z,95384.3
2022-10-23T11:40:59.297Z,95386
2022-10-23T11:42:01.774Z,95383.7
2022-10-23T11:43:04.264Z,95379
2022-10-23T11:44:06.469Z,95376.4
2022-10-23T11:45:08.957Z,95370.5
2022-10-23T11:46:11.160Z,95367
2022-10-23T11:47:13.623Z,95363.7
2022-10-23T11:48:16.120Z,95370
2022-10-23T11:49:18.589Z,95368.4
2022-10-23T11:50:21.299Z,95363.5
2022-10-23T11:51:23.232Z,95363.8
2022-10-23T11:52:25.458Z,95356.8
2022-10-23T11:53:27.924Z,95359.5
2022-10-23T11:54:30.128Z,95357.2
2022-10-23T11:55:32.027Z,95358.2
2022-10-23T11:56:34.514Z,95355.1
2022-10-23T11:57:36.713Z,95357.7
2022-10-23T11:58:39.210Z,95361
2022-10-23T11:59:41.689Z,95360.3
2022-10-23T12:00:44.178Z,95360.6
2022-10-23T12:01:47.385Z,95360.2
2022-10-23T12:02:50.650Z,95359.5
2022-10-23T12:03:57.630Z,95351.9
2022-10-23T12:05:00.111Z,95349.8
2022-10-23T12:06:02.360Z,95357.1
2022-10-23T12:07:04.830Z,95356.3
2022-10-23T12:08:07.322Z,95355.2
2022-10-23T12:09:09.543Z,95356.3
2022-10-23T12:10:12.269Z,95356.4
2022-10-23T12:11:14.768Z,95352.5
2022-10-23T12:12:17.257Z,95351.2
2022-10-23T12:13:19.243Z,95345.9
2022-10-23T12:14:21.476Z,95346.8
2022-10-23T12:15:23.995Z,95341.4
2022-10-23T12:16:26.503Z,95341.3
2022-10-23T12:17:28.720Z,95339.2
2022-10-23T12:18:30.938Z,95335.2
2022-10-23T12:19:33.421Z,95338.8
2022-10-23T12:20:35.884Z,95337
2022-10-23T12:21:38.136Z,95335.3
2022-10-23T12:22:40.093Z,95339
2022-10-23T12:24:47.624Z,95331.5
2022-10-23T12:25:50.124Z,95332.5
2022-10-23T12:26:52.331Z,95330.3
2022-10-23T12:27:54.807Z,95328.6
2022-10-23T12:28:56.732Z,95322.5
2022-10-23T12:29:59.255Z,95325.9
2022-10-23T12:31:01.730Z,95325
2022-10-23T12:32:03.937Z,95322.4
2022-10-23T12:33:06.157Z,95323.2
2022-10-23T12:34:08.641Z,95327.4
2022-10-23T12:35:10.866Z,95323.3
2022-10-23T12:36:13.356Z,95327.1
2022-10-23T12:37:15.287Z,95324.3
2022-10-23T12:38:17.778Z,95322.5
2022-10-23T12:39:20.331Z,95324.9
2022-10-23T12:40:22.811Z,95320.9
2022-10-23T12:41:25.004Z,95324
2022-10-23T12:42:27.211Z,95322
2022-10-23T12:43:29.398Z,95319.1
2022-10-23T12:44:31.603Z,95321
2022-10-23T12:45:34.144Z,95320.8
2022-10-23T12:46:36.738Z,95318.7
2022-10-23T12:47:39.298Z,95315.4
2022-10-23T12:48:41.513Z,95319
2022-10-23T12:49:43.981Z,95314.8
2022-10-23T12:50:46.177Z,95317.9
2022-10-23T12:51:48.645Z,95313.6
2022-10-23T12:52:51.187Z,95311.3
2022-10-23T12:53:53.667Z,95309.5
2022-10-23T12:54:55.623Z,95311.7
2022-10-23T12:55:57.572Z,95309.5
2022-10-23T12:56:59.834Z,95313.3